Time;durP1;ratioP1;P1;durP2;ratioP2;P2;SDS_P1;SDS_P2;PMS_P1;PMS_P2;Temp;Humidity;BMP_temperature;BMP_pressure;BME280_temperature;BME280_humidity;BME280_pressure;Samples;Min_cycle;Max_cycle;Signal;HPM_P1;HPM_P2
2021/05/10 00:01:49;;;;;;;2.35;1.77;;;17.40;51.30;;;;;;5053880;28;20483;-74
2021/05/10 00:04:15;;;;;;;3.60;1.10;;;17.40;50.90;;;;;;5071913;28;20017;-74
2021/05/10 00:06:41;;;;;;;3.55;1.20;;;17.40;52.40;;;;;;5053582;28;20056;-73
2021/05/10 00:09:06;;;;;;;1.45;1.00;;;17.30;53.40;;;;;;5071800;28;20043;-74
2021/05/10 00:11:35;;;;;;;3.38;1.60;;;17.40;52.00;;;;;;5071828;28;20030;-74
2021/05/10 00:14:03;;;;;;;1.98;1.30;;;17.30;54.50;;;;;;5071738;28;20035;-74
2021/05/10 00:16:29;;;;;;;2.40;1.20;;;17.20;54.40;;;;;;5053827;28;20021;-73
2021/05/10 00:18:55;;;;;;;4.53;1.60;;;17.10;55.90;;;;;;5071748;28;20029;-74
2021/05/10 00:21:20;;;;;;;2.72;1.20;;;16.90;56.70;;;;;;5071582;28;20028;-74
2021/05/10 00:23:46;;;;;;;1.42;0.98;;;16.80;57.30;;;;;;5071795;28;20043;-74
2021/05/10 00:26:12;;;;;;;3.67;1.30;;;16.70;57.70;;;;;;5071574;28;20519;-74
2021/05/10 00:28:38;;;;;;;1.73;1.30;;;16.50;58.60;;;;;;5071597;28;20025;-73
2021/05/10 00:31:04;;;;;;;2.60;1.60;;;16.30;59.20;;;;;;5053748;28;20048;-73
2021/05/10 00:33:30;;;;;;;2.70;1.63;;;16.30;59.80;;;;;;5071629;28;20036;-73
2021/05/10 00:35:56;;;;;;;2.88;1.30;;;16.30;59.40;;;;;;5071440;28;20025;-73
2021/05/10 00:38:21;;;;;;;2.65;1.35;;;16.30;59.70;;;;;;5071450;28;20029;-73
2021/05/10 00:40:47;;;;;;;2.83;1.67;;;16.10;60.80;;;;;;5071425;28;20021;-73
2021/05/10 00:43:13;;;;;;;4.80;1.45;;;16.10;61.00;;;;;;5071442;28;20058;-73
2021/05/10 00:45:39;;;;;;;1.85;1.20;;;16.00;61.80;;;;;;5071290;28;20309;-74
2021/05/10 00:48:05;;;;;;;2.70;1.13;;;15.90;62.20;;;;;;5071349;28;20023;-73
2021/05/10 00:50:31;;;;;;;4.32;1.50;;;16.00;60.10;;;;;;5071435;28;20441;-74
2021/05/10 00:52:57;;;;;;;1.40;1.30;;;16.20;60.20;;;;;;5071337;28;20028;-74
2021/05/10 00:55:23;;;;;;;3.42;1.58;;;16.10;60.80;;;;;;5071472;28;20032;-74
2021/05/10 00:57:54;;;;;;;3.70;1.38;;;16.10;61.20;;;;;;5071287;28;20044;-74
2021/05/10 01:00:21;;;;;;;1.42;1.20;;;16.00;62.30;;;;;;5053362;28;20074;-73
2021/05/10 01:02:48;;;;;;;0.95;0.90;;;16.00;62.10;;;;;;5071343;28;20035;-73
2021/05/10 01:05:15;;;;;;;3.70;1.40;;;16.10;62.10;;;;;;5055844;28;20020;-74
2021/05/10 01:07:41;;;;;;;6.30;1.88;;;16.10;60.60;;;;;;5056905;28;20020;-73
2021/05/10 01:10:14;;;;;;;2.55;1.23;;;16.10;59.20;;;;;;5057018;28;20021;-73
2021/05/10 01:12:40;;;;;;;4.60;1.35;;;16.10;59.50;;;;;;5056684;28;20020;-74
2021/05/10 01:15:08;;;;;;;4.90;1.30;;;16.00;59.70;;;;;;5074792;28;20025;-73
2021/05/10 01:17:35;;;;;;;4.68;1.30;;;15.80;60.50;;;;;;5074486;28;20028;-74
2021/05/10 01:20:05;;;;;;;2.50;1.33;;;15.70;60.70;;;;;;5056779;28;20421;-74
2021/05/10 01:22:42;;;;;;;2.25;1.30;;;15.50;61.90;;;;;;5074522;28;20021;-74
2021/05/10 01:25:12;;;;;;;3.22;1.38;;;15.20;62.00;;;;;;5074497;28;20024;-74
2021/05/10 01:27:38;;;;;;;1.20;1.10;;;15.10;62.80;;;;;;5056352;28;20073;-73
2021/05/10 01:30:07;;;;;;;3.83;1.35;;;15.20;61.90;;;;;;5074283;28;20029;-73
2021/05/10 01:32:33;;;;;;;2.63;1.70;;;15.40;60.40;;;;;;5056390;28;20434;-74
2021/05/10 01:34:58;;;;;;;3.58;1.40;;;15.30;61.10;;;;;;5074343;28;20025;-74
2021/05/10 01:37:25;;;;;;;2.15;1.10;;;15.30;61.40;;;;;;5074081;28;20025;-73
2021/05/10 01:39:50;;;;;;;3.92;1.60;;;15.40;61.10;;;;;;5056313;28;20391;-73
2021/05/10 01:42:16;;;;;;;5.57;1.45;;;15.40;60.50;;;;;;5056206;28;20024;-74
2021/05/10 01:44:42;;;;;;;1.73;1.35;;;15.40;59.80;;;;;;5074107;28;20017;-74
2021/05/10 01:47:08;;;;;;;2.55;1.15;;;15.50;58.90;;;;;;5073989;28;20021;-74
2021/05/10 01:49:34;;;;;;;2.72;1.50;;;15.70;58.10;;;;;;5074289;28;20505;-73
2021/05/10 01:52:01;;;;;;;2.05;1.25;;;15.80;57.70;;;;;;5073875;28;20028;-73
2021/05/10 01:54:27;;;;;;;3.38;1.27;;;15.80;56.40;;;;;;5055893;28;20028;-73
2021/05/10 01:56:53;;;;;;;1.42;1.20;;;15.90;57.00;;;;;;5055913;28;20386;-73
2021/05/10 01:59:19;;;;;;;2.63;1.30;;;15.90;56.20;;;;;;5055939;28;20027;-74
2021/05/10 02:01:45;;;;;;;2.30;1.25;;;15.90;55.40;;;;;;5055733;28;20032;-73
2021/05/10 02:04:11;;;;;;;1.88;1.42;;;16.00;55.30;;;;;;5073724;28;20021;-73
2021/05/10 02:06:37;;;;;;;5.78;1.58;;;16.10;55.20;;;;;;5073492;28;20070;-73
2021/05/10 02:09:03;;;;;;;4.00;1.55;;;16.20;54.60;;;;;;5039129;28;20384;-73
2021/05/10 02:11:29;;;;;;;1.70;1.30;;;16.20;54.30;;;;;;5073565;28;20444;-73
2021/05/10 02:13:55;;;;;;;2.70;1.40;;;16.20;54.60;;;;;;5073357;28;20056;-73
2021/05/10 02:16:22;;;;;;;4.20;1.23;;;16.20;54.40;;;;;;5038691;28;20087;-73
2021/05/10 02:18:48;;;;;;;1.63;1.23;;;16.30;53.90;;;;;;5073426;28;20021;-73
2021/05/10 02:21:14;;;;;;;3.72;1.10;;;16.40;53.50;;;;;;5038732;28;20408;-73
2021/05/10 02:23:39;;;;;;;2.45;1.30;;;16.30;54.70;;;;;;5073333;28;20024;-73
2021/05/10 02:26:07;;;;;;;1.58;1.30;;;16.40;54.30;;;;;;5073108;28;20051;-74
2021/05/10 02:28:33;;;;;;;4.10;1.38;;;16.40;54.20;;;;;;5073157;28;20134;-73
2021/05/10 02:31:01;;;;;;;3.40;1.73;;;16.40;54.80;;;;;;5038667;28;20503;-73
2021/05/10 02:33:32;;;;;;;7.03;1.48;;;16.30;56.10;;;;;;5055359;28;20407;-74
2021/05/10 02:35:58;;;;;;;2.92;1.50;;;16.30;54.90;;;;;;5072963;28;20020;-74
2021/05/10 02:38:24;;;;;;;2.63;1.27;;;16.30;55.80;;;;;;5072786;28;20112;-73
2021/05/10 02:40:51;;;;;;;3.85;1.33;;;16.20;56.70;;;;;;5055032;28;20074;-73
2021/05/10 02:43:18;;;;;;;2.70;1.30;;;16.20;57.80;;;;;;5072893;28;20021;-73
2021/05/10 02:45:44;;;;;;;4.45;3.13;;;16.30;57.20;;;;;;5072718;28;20017;-73
2021/05/10 02:48:11;;;;;;;3.22;1.55;;;16.40;55.80;;;;;;5072922;28;20545;-73
2021/05/10 02:50:36;;;;;;;3.45;1.50;;;16.50;55.00;;;;;;5054921;28;20025;-74
2021/05/10 02:53:03;;;;;;;3.75;1.73;;;16.40;55.60;;;;;;5072819;28;20388;-74
2021/05/10 02:55:29;;;;;;;2.03;1.10;;;16.40;55.50;;;;;;5072679;28;20048;-73
2021/05/10 02:57:55;;;;;;;2.08;0.98;;;16.40;55.10;;;;;;5072523;28;20060;-73
2021/05/10 03:00:27;;;;;;;6.80;1.40;;;16.30;55.60;;;;;;5072454;28;20029;-74
2021/05/10 03:02:55;;;;;;;;;;;16.30;56.90;;;;;;5072930;28;20024;-73
2021/05/10 03:05:21;;;;;;;10.00;1.65;;;16.30;56.20;;;;;;5072583;28;19905;-74
2021/05/10 03:07:47;;;;;;;7.05;1.75;;;16.20;56.10;;;;;;5072499;28;20025;-73
2021/05/10 03:10:15;;;;;;;3.08;1.60;;;15.90;57.90;;;;;;5072370;28;20099;-73
2021/05/10 03:12:42;;;;;;;3.25;1.48;;;15.80;57.30;;;;;;5072487;28;20105;-74
2021/05/10 03:15:10;;;;;;;2.20;1.40;;;15.70;57.50;;;;;;5072506;28;20020;-74
2021/05/10 03:17:36;;;;;;;5.10;1.35;;;15.70;56.70;;;;;;5072140;28;20147;-73
2021/05/10 03:20:05;;;;;;;5.78;1.50;;;15.80;57.50;;;;;;5072257;28;20430;-73
2021/05/10 03:22:31;;;;;;;4.18;1.52;;;15.80;58.10;;;;;;5072233;28;20535;-74
2021/05/10 03:24:57;;;;;;;6.63;1.60;;;15.70;58.50;;;;;;5089640;22;20054;-76
2021/05/10 03:27:23;;;;;;;2.58;1.27;;;15.70;58.10;;;;;;5073810;28;20055;-74
2021/05/10 03:29:48;;;;;;;1.60;1.27;;;15.80;57.20;;;;;;5074209;28;20560;-75
2021/05/10 03:32:14;;;;;;;3.78;1.27;;;15.90;56.80;;;;;;5092310;28;20096;-74
2021/05/10 03:34:40;;;;;;;3.13;1.30;;;15.90;56.80;;;;;;5074146;28;20398;-74
2021/05/10 03:37:05;;;;;;;5.10;2.30;;;15.80;56.80;;;;;;5073953;28;20040;-75
2021/05/10 03:39:31;;;;;;;2.08;1.20;;;15.50;58.60;;;;;;5092179;28;20028;-74
2021/05/10 03:41:57;;;;;;;3.17;1.52;;;15.40;57.60;;;;;;5057379;28;20028;-74
2021/05/10 03:44:23;;;;;;;2.03;1.30;;;15.50;57.40;;;;;;5073972;28;20467;-75
2021/05/10 03:46:48;;;;;;;5.38;2.03;;;15.60;56.60;;;;;;5092026;28;20024;-75
2021/05/10 03:49:14;;;;;;;4.97;1.67;;;15.80;56.10;;;;;;5092015;28;20368;-75
2021/05/10 03:51:40;;;;;;;4.15;1.67;;;15.80;55.70;;;;;;5074082;28;20024;-74
2021/05/10 03:54:06;;;;;;;8.80;1.98;;;15.80;56.10;;;;;;5092043;28;20031;-74
2021/05/10 03:56:31;;;;;;;14.48;1.90;;;16.00;55.40;;;;;;5073784;28;20107;-74
2021/05/10 03:58:57;;;;;;;4.68;2.15;;;15.90;55.40;;;;;;5092250;28;20494;-75
2021/05/10 04:01:23;;;;;;;27.83;3.40;;;15.90;55.60;;;;;;5091926;28;20020;-74
2021/05/10 04:03:58;;;;;;;33.85;3.25;;;15.90;55.70;;;;;;5073765;28;20023;-74
2021/05/10 04:06:39;;;;;;;14.02;3.00;;;15.70;58.00;;;;;;5073790;28;20051;-74
2021/05/10 04:14:21;;;;;;;17.90;2.70;;;15.80;59.00;;;;;;5091908;28;20020;-74
2021/05/10 04:16:47;;;;;;;14.50;3.22;;;15.70;59.20;;;;;;5056715;28;20028;-75
2021/05/10 04:19:13;;;;;;;11.10;2.33;;;15.60;59.30;;;;;;5091647;28;20028;-74
2021/05/10 04:21:38;;;;;;;4.88;2.28;;;15.70;59.20;;;;;;5091816;28;20024;-74
2021/05/10 04:24:05;;;;;;;6.07;2.03;;;15.80;59.00;;;;;;5073812;28;20092;-74
2021/05/10 04:26:30;;;;;;;9.50;2.38;;;15.90;58.90;;;;;;5092056;28;20036;-74
2021/05/10 04:28:57;;;;;;;47.47;4.20;;;16.00;59.00;;;;;;5090417;28;20031;-74
2021/05/10 04:31:22;;;;;;;8.40;2.58;;;16.00;59.10;;;;;;5091762;28;20028;-74
2021/05/10 04:33:48;;;;;;;5.22;2.28;;;15.90;59.40;;;;;;5056848;28;20039;-74
2021/05/10 04:36:14;;;;;;;6.03;2.53;;;15.90;59.60;;;;;;5073638;28;20024;-74
2021/05/10 04:38:43;;;;;;;10.40;2.55;;;15.90;59.20;;;;;;5091505;28;20091;-75
2021/05/10 04:41:09;;;;;;;14.77;3.60;;;16.00;59.80;;;;;;5077043;28;20024;-75
2021/05/10 04:43:34;;;;;;;10.00;2.53;;;15.90;61.40;;;;;;5095307;28;20113;-75
2021/05/10 04:46:00;;;;;;;3.88;2.03;;;15.90;61.30;;;;;;5077162;28;20039;-75
2021/05/10 04:48:29;;;;;;;7.72;2.10;;;16.00;60.70;;;;;;5060462;28;20024;-74
2021/05/10 04:50:56;;;;;;;3.60;2.20;;;16.00;60.30;;;;;;5077274;28;20028;-75
2021/05/10 04:53:22;;;;;;;2.70;1.95;;;16.00;60.50;;;;;;5095299;28;20028;-74
2021/05/10 04:55:47;;;;;;;4.75;2.10;;;16.10;61.00;;;;;;5076707;28;20069;-74
2021/05/10 04:58:13;;;;;;;7.57;2.03;;;16.00;61.30;;;;;;5095059;28;20040;-74
2021/05/10 05:00:39;;;;;;;13.77;2.70;;;16.00;61.60;;;;;;5095018;28;20107;-74
2021/05/10 05:03:05;;;;;;;8.75;2.30;;;15.90;63.00;;;;;;5095176;28;20043;-74
2021/05/10 05:05:31;;;;;;;10.05;2.33;;;16.00;63.20;;;;;;5076990;28;20471;-75
2021/05/10 05:07:57;;;;;;;5.80;1.83;;;16.00;63.50;;;;;;5094769;28;20468;-74
2021/05/10 05:10:22;;;;;;;5.68;2.00;;;15.90;64.30;;;;;;5094810;28;20027;-74
2021/05/10 05:12:49;;;;;;;2.20;1.52;;;15.90;64.70;;;;;;5076714;28;20024;-74
2021/05/10 05:15:16;;;;;;;5.00;2.65;;;15.90;65.00;;;;;;5059495;28;20020;-75
2021/05/10 05:17:42;;;;;;;4.90;1.83;;;15.90;66.60;;;;;;5099202;28;20059;-74
2021/05/10 05:20:09;;;;;;;16.65;3.00;;;15.90;66.10;;;;;;5084848;28;20044;-74
2021/05/10 05:22:35;;;;;;;6.97;1.92;;;16.00;67.00;;;;;;5080550;28;20052;-74
2021/05/10 05:25:02;;;;;;;3.70;1.83;;;16.10;65.40;;;;;;5106231;28;20398;-75
2021/05/10 05:27:28;;;;;;;3.83;1.80;;;16.30;65.10;;;;;;5082301;28;20063;-75
2021/05/10 05:29:54;;;;;;;7.22;2.35;;;16.40;65.00;;;;;;5084774;28;20051;-74
2021/05/10 05:32:22;;;;;;;8.43;2.58;;;16.60;63.80;;;;;;5080382;28;20101;-75
2021/05/10 05:34:48;;;;;;;6.57;2.50;;;16.80;63.90;;;;;;5090641;28;20153;-75
2021/05/10 05:37:14;;;;;;;11.27;3.47;;;17.00;63.20;;;;;;5085797;28;20032;-75
2021/05/10 05:39:40;;;;;;;24.15;4.28;;;17.20;62.10;;;;;;5113860;28;20024;-75
2021/05/10 05:42:06;;;;;;;19.70;3.83;;;17.30;62.20;;;;;;5090327;28;20110;-74
2021/05/10 05:44:35;;;;;;;18.05;3.63;;;17.40;62.10;;;;;;5084306;28;20383;-75
2021/05/10 05:47:03;;;;;;;20.67;4.05;;;17.50;62.00;;;;;;5081554;28;20054;-75
2021/05/10 05:49:34;;;;;;;21.67;3.63;;;17.80;60.40;;;;;;5102903;28;20035;-74
2021/05/10 05:52:04;;;;;;;12.57;3.15;;;17.90;59.70;;;;;;5096815;28;20024;-74
2021/05/10 05:54:31;;;;;;;8.13;2.08;;;18.30;58.10;;;;;;5087411;28;20024;-74
2021/05/10 05:56:57;;;;;;;4.18;2.20;;;18.60;57.00;;;;;;5076576;28;20024;-75
2021/05/10 05:59:23;;;;;;;7.35;1.83;;;18.90;54.50;;;;;;5068140;28;20089;-75
2021/05/10 06:01:49;;;;;;;7.43;3.47;;;19.20;53.00;;;;;;5102884;28;20487;-74
2021/05/10 06:04:15;;;;;;;8.30;2.05;;;19.50;53.10;;;;;;5103979;28;20024;-75
2021/05/10 06:06:40;;;;;;;7.28;2.00;;;19.70;52.10;;;;;;5106801;28;20028;-75
2021/05/10 06:09:08;;;;;;;3.05;1.40;;;19.80;50.10;;;;;;5084664;28;20428;-75
2021/05/10 06:11:34;;;;;;;3.60;1.52;;;20.00;49.30;;;;;;5102142;28;20069;-75
2021/05/10 06:14:00;;;;;;;6.35;1.80;;;20.00;49.80;;;;;;5101461;28;20025;-75
2021/05/10 06:16:28;;;;;;;3.03;1.42;;;20.20;49.70;;;;;;5094419;28;20039;-75
2021/05/10 06:18:54;;;;;;;6.88;1.77;;;20.30;51.60;;;;;;5096513;28;20275;-75
2021/05/10 06:21:19;;;;;;;4.28;1.75;;;20.50;51.60;;;;;;5080321;28;20036;-75
2021/05/10 06:23:45;;;;;;;6.10;1.80;;;20.60;50.30;;;;;;5107062;28;20020;-75
2021/05/10 06:26:11;;;;;;;3.45;1.75;;;20.70;49.40;;;;;;5088260;28;20027;-75
2021/05/10 06:28:37;;;;;;;5.13;1.30;;;20.70;48.60;;;;;;5100267;28;20417;-74
2021/05/10 06:31:02;;;;;;;7.15;1.63;;;20.70;48.40;;;;;;5077664;28;20042;-75
2021/05/10 06:33:28;;;;;;;9.43;1.30;;;20.60;48.80;;;;;;5103577;28;20035;-75
2021/05/10 06:35:54;;;;;;;3.50;1.52;;;20.60;49.20;;;;;;5088313;28;20027;-75
2021/05/10 06:38:20;;;;;;;5.28;1.50;;;20.60;49.60;;;;;;5084093;28;20358;-75
2021/05/10 06:40:46;;;;;;;1.75;1.17;;;20.60;48.50;;;;;;5102984;28;20033;-75
2021/05/10 06:43:11;;;;;;;8.18;1.42;;;20.80;48.50;;;;;;5100735;28;20426;-74
2021/05/10 06:45:37;;;;;;;4.28;1.30;;;20.90;48.30;;;;;;5099764;28;20399;-75
2021/05/10 06:48:03;;;;;;;3.80;1.60;;;21.00;48.70;;;;;;5106715;28;20016;-75
2021/05/10 06:50:30;;;;;;;3.10;1.38;;;21.10;48.90;;;;;;5086564;28;20031;-75
2021/05/10 06:52:55;;;;;;;8.05;2.15;;;21.30;48.90;;;;;;5067132;28;20024;-75
2021/05/10 06:55:21;;;;;;;2.15;1.52;;;21.50;48.30;;;;;;5106875;28;20024;-75
2021/05/10 06:57:47;;;;;;;3.10;1.50;;;21.60;48.20;;;;;;5105962;28;20425;-75
2021/05/10 07:00:14;;;;;;;3.90;1.42;;;21.70;48.60;;;;;;5105961;28;20016;-75
2021/05/10 07:02:39;;;;;;;8.63;1.85;;;21.80;49.10;;;;;;5099576;28;20510;-74
2021/05/10 07:05:05;;;;;;;5.45;1.40;;;21.80;48.80;;;;;;5107111;28;20019;-75
2021/05/10 07:07:32;;;;;;;7.00;1.35;;;21.80;48.20;;;;;;5097892;28;20043;-74
2021/05/10 07:09:58;;;;;;;5.03;1.42;;;21.80;48.90;;;;;;5093370;28;20016;-75
2021/05/10 07:12:24;;;;;;;4.85;2.45;;;21.90;48.50;;;;;;5111990;28;20035;-76
2021/05/10 07:14:50;;;;;;;4.93;1.50;;;21.90;49.50;;;;;;5070967;28;20047;-75
2021/05/10 07:17:16;;;;;;;4.43;1.75;;;22.00;48.80;;;;;;5106650;28;20028;-75
2021/05/10 07:19:41;;;;;;;6.57;1.85;;;22.00;48.40;;;;;;5104092;28;20104;-75
2021/05/10 07:22:07;;;;;;;2.97;1.73;;;22.10;48.10;;;;;;5106988;28;20431;-75
2021/05/10 07:24:33;;;;;;;5.57;1.88;;;22.10;48.90;;;;;;5086889;28;20298;-75
2021/05/10 07:26:59;;;;;;;6.28;1.65;;;22.30;48.80;;;;;;5084864;28;20036;-75
2021/05/10 07:29:25;;;;;;;8.52;1.33;;;22.40;49.20;;;;;;5104516;28;20471;-75
2021/05/10 07:31:51;;;;;;;3.90;1.58;;;22.60;49.40;;;;;;5073490;28;20028;-75
2021/05/10 07:34:17;;;;;;;5.20;1.40;;;22.70;48.80;;;;;;5105916;28;20058;-76
2021/05/10 07:36:43;;;;;;;6.68;1.40;;;22.80;46.50;;;;;;5082595;28;20058;-75
2021/05/10 07:39:09;;;;;;;11.20;1.67;;;23.00;47.70;;;;;;5106819;28;20019;-76
2021/05/10 07:41:35;;;;;;;5.93;1.73;;;23.20;49.60;;;;;;5102493;28;20047;-76
2021/05/10 07:44:02;;;;;;;6.72;1.70;;;23.30;46.40;;;;;;5066763;28;20471;-75
2021/05/10 07:46:27;;;;;;;6.13;1.55;;;23.60;47.50;;;;;;5101771;28;20636;-75
2021/05/10 07:48:53;;;;;;;3.55;1.50;;;23.80;47.30;;;;;;5105950;28;20023;-76
2021/05/10 07:51:19;;;;;;;6.22;1.55;;;23.90;46.90;;;;;;5083577;28;20031;-76
2021/05/10 07:53:45;;;;;;;6.72;1.95;;;24.10;45.60;;;;;;5099536;28;20491;-76
2021/05/10 07:56:13;;;;;;;2.35;1.10;;;24.30;45.20;;;;;;5103658;28;20107;-76
2021/05/10 07:58:42;;;;;;;7.97;1.80;;;24.50;44.70;;;;;;5100268;28;20019;-75
2021/05/10 08:01:08;;;;;;;4.32;1.60;;;24.70;44.40;;;;;;5086335;28;20032;-76
2021/05/10 08:03:33;;;;;;;10.32;1.85;;;24.60;44.60;;;;;;5097302;28;20024;-76
2021/05/10 08:06:01;;;;;;;6.10;1.45;;;24.80;44.00;;;;;;5082727;28;20049;-75
2021/05/10 08:08:27;;;;;;;4.18;1.30;;;25.10;43.00;;;;;;5102313;28;20016;-75
2021/05/10 08:10:53;;;;;;;3.03;1.20;;;25.30;43.40;;;;;;5107595;28;20095;-75
2021/05/10 08:13:19;;;;;;;6.80;2.03;;;25.50;42.50;;;;;;5099844;28;20491;-75
2021/05/10 08:15:46;;;;;;;2.28;1.30;;;25.70;40.70;;;;;;5099816;28;20106;-75
2021/05/10 08:18:12;;;;;;;6.10;1.80;;;25.90;41.70;;;;;;5114361;28;20525;-75
2021/05/10 08:20:40;;;;;;;3.40;1.67;;;25.90;39.70;;;;;;5096082;28;20020;-75
2021/05/10 08:23:06;;;;;;;4.18;1.40;;;26.20;39.30;;;;;;5104193;28;20024;-75
2021/05/10 08:25:32;;;;;;;6.28;1.10;;;26.40;36.80;;;;;;5107225;28;20049;-75
2021/05/10 08:27:57;;;;;;;9.15;1.83;;;26.50;37.50;;;;;;5104549;28;20107;-75
2021/05/10 08:30:23;;;;;;;7.25;1.50;;;26.60;38.90;;;;;;5099391;28;20070;-76
2021/05/10 08:32:49;;;;;;;5.18;1.50;;;26.70;39.40;;;;;;5069641;28;20028;-76
2021/05/10 08:35:15;;;;;;;5.63;1.95;;;26.90;38.80;;;;;;5080007;28;20594;-76
2021/05/10 08:37:41;;;;;;;4.53;1.27;;;27.20;38.40;;;;;;5085824;28;20372;-76
2021/05/10 08:40:08;;;;;;;7.03;1.30;;;27.20;38.00;;;;;;5087086;28;20027;-76
2021/05/10 08:42:35;;;;;;;5.70;1.48;;;26.90;38.00;;;;;;5106354;28;20020;-76
2021/05/10 08:45:01;;;;;;;2.22;1.27;;;27.00;38.80;;;;;;5088757;28;20016;-76
2021/05/10 08:47:33;;;;;;;4.32;1.23;;;27.20;37.60;;;;;;5099779;28;20031;-76
2021/05/10 08:50:03;;;;;;;4.70;1.30;;;27.50;37.50;;;;;;5095038;28;20038;-77
2021/05/10 08:52:29;;;;;;;5.50;1.33;;;27.60;37.70;;;;;;5099643;28;20036;-76
2021/05/10 08:54:55;;;;;;;3.47;1.50;;;27.90;33.80;;;;;;5100768;28;20399;-76
2021/05/10 08:57:21;;;;;;;10.93;2.38;;;28.10;34.00;;;;;;5064212;28;20545;-77
2021/05/10 08:59:47;;;;;;;3.13;1.48;;;28.30;33.10;;;;;;5080916;28;20073;-76
2021/05/10 09:02:13;;;;;;;5.85;1.10;;;28.50;32.80;;;;;;5088952;28;20024;-76
2021/05/10 09:04:40;;;;;;;4.15;1.20;;;28.70;31.40;;;;;;5083605;28;20035;-76
2021/05/10 09:07:22;;;;;;;6.28;1.35;;;29.00;30.90;;;;;;5095571;28;20016;-76
2021/05/10 09:10:00;;;;;;;3.13;0.95;;;29.10;30.70;;;;;;5086633;28;20051;-76
2021/05/10 09:12:43;;;;;;;8.98;1.17;;;29.20;30.30;;;;;;5092685;28;20085;-76
2021/05/10 09:15:18;;;;;;;3.20;1.17;;;29.20;30.60;;;;;;5096435;28;20058;-76
2021/05/10 09:17:56;;;;;;;5.82;1.13;;;29.10;30.10;;;;;;5097540;28;20031;-76
2021/05/10 09:20:29;;;;;;;7.55;1.50;;;29.40;30.50;;;;;;5087547;28;20105;-77
2021/05/10 09:23:11;;;;;;;3.67;1.27;;;29.70;30.20;;;;;;5087072;28;20027;-76
2021/05/10 09:25:42;;;;;;;6.45;1.30;;;29.90;31.60;;;;;;5114445;22;20040;-72
2021/05/10 09:28:13;;;;;;;7.72;1.10;;;29.80;32.70;;;;;;5056402;28;20056;-72
2021/05/10 09:30:40;;;;;;;5.72;1.65;;;29.40;30.50;;;;;;5081753;28;20036;-73
2021/05/10 09:33:06;;;;;;;5.78;1.10;;;29.20;30.50;;;;;;5072915;28;20032;-73
2021/05/10 09:35:32;;;;;;;6.47;1.35;;;29.20;30.40;;;;;;5089171;28;20024;-73
2021/05/10 09:38:06;;;;;;;5.25;1.67;;;29.30;30.60;;;;;;5073293;28;20377;-73
2021/05/10 09:40:39;;;;;;;3.95;1.60;;;29.60;34.20;;;;;;5088155;28;20024;-73
2021/05/10 09:43:06;;;;;;;9.13;1.40;;;29.90;33.50;;;;;;5094784;28;20016;-73
2021/05/10 09:45:41;;;;;;;7.18;1.60;;;30.30;32.20;;;;;;5090738;28;20024;-73
2021/05/10 09:48:18;;;;;;;5.45;1.42;;;30.60;32.50;;;;;;5055849;28;20095;-73
2021/05/10 09:50:45;;;;;;;9.63;1.20;;;30.90;32.40;;;;;;5073911;28;20032;-73
2021/05/10 09:53:16;;;;;;;6.70;1.58;;;31.00;30.50;;;;;;5064329;28;20059;-73
2021/05/10 09:55:47;;;;;;;2.97;1.20;;;31.10;31.00;;;;;;5074194;28;20021;-73
2021/05/10 09:58:13;;;;;;;6.55;1.17;;;31.40;30.80;;;;;;5056930;28;20032;-74
2021/05/10 10:00:40;;;;;;;4.38;1.00;;;31.30;30.80;;;;;;5074902;28;20078;-73
2021/05/10 10:03:25;;;;;;;4.13;1.52;;;31.10;30.00;;;;;;5087069;28;20027;-75
2021/05/10 10:05:52;;;;;;;7.47;1.55;;;31.20;30.00;;;;;;5071104;22;20071;-73
2021/05/10 10:08:18;;;;;;;8.60;2.38;;;31.50;30.30;;;;;;5088102;28;20020;-73
2021/05/10 10:10:44;;;;;;;2.42;1.27;;;31.80;30.50;;;;;;5083428;28;20031;-75
2021/05/10 10:13:10;;;;;;;4.38;1.80;;;31.90;30.00;;;;;;5087011;28;20028;-73
2021/05/10 10:15:36;;;;;;;4.90;1.67;;;31.80;30.00;;;;;;5055530;28;20021;-73
2021/05/10 10:18:04;;;;;;;5.78;1.08;;;31.80;29.30;;;;;;5049946;28;20032;-76
2021/05/10 10:20:32;;;;;;;2.13;1.25;;;31.70;29.60;;;;;;5076597;28;20039;-75
2021/05/10 10:22:59;;;;;;;2.95;1.48;;;31.70;29.80;;;;;;5085049;28;20056;-76
2021/05/10 10:25:25;;;;;;;12.40;1.83;;;31.90;30.00;;;;;;5059200;28;20437;-75
2021/05/10 10:27:51;;;;;;;3.67;1.48;;;32.00;31.20;;;;;;5051887;28;20436;-75
2021/05/10 10:30:21;;;;;;;4.40;1.65;;;31.80;30.00;;;;;;5063119;28;20039;-76
2021/05/10 10:32:48;;;;;;;10.25;1.67;;;31.80;29.70;;;;;;5072535;28;20024;-75
2021/05/10 10:35:15;;;;;;;4.55;1.30;;;31.50;27.80;;;;;;5072708;28;20056;-75
2021/05/10 10:37:42;;;;;;;5.80;1.55;;;31.40;28.80;;;;;;5080852;28;20540;-75
2021/05/10 10:40:21;;;;;;;5.05;1.10;;;31.40;28.40;;;;;;5064311;28;20025;-75
2021/05/10 10:42:48;;;;;;;4.18;1.27;;;30.90;28.80;;;;;;5059924;28;20020;-76
2021/05/10 10:45:21;;;;;;;8.38;2.10;;;31.10;29.00;;;;;;5061030;28;20016;-75
2021/05/10 10:47:57;;;;;;;5.40;1.02;;;31.30;28.00;;;;;;5086515;28;20055;-76
2021/05/10 10:50:28;;;;;;;4.60;1.20;;;31.00;27.20;;;;;;5076883;28;20020;-76
2021/05/10 10:52:56;;;;;;;6.22;1.60;;;30.90;27.20;;;;;;5085290;28;20020;-75
2021/05/10 10:55:24;;;;;;;5.07;1.60;;;31.30;27.30;;;;;;5081489;28;20039;-76
2021/05/10 10:57:53;;;;;;;3.80;1.20;;;31.50;26.50;;;;;;5077274;28;20415;-76
2021/05/10 11:00:20;;;;;;;4.90;1.85;;;31.70;26.60;;;;;;5084165;28;20111;-75
2021/05/10 11:02:52;;;;;;;5.38;1.48;;;31.10;26.20;;;;;;5071759;28;20032;-75
2021/05/10 11:05:27;;;;;;;2.55;0.98;;;31.50;26.70;;;;;;5069403;28;20456;-76
2021/05/10 11:08:09;;;;;;;4.05;1.75;;;31.80;27.70;;;;;;5068369;28;20119;-75
2021/05/10 11:10:51;;;;;;;6.00;1.20;;;31.80;27.70;;;;;;5088401;28;20129;-75
2021/05/10 11:13:25;;;;;;;3.28;1.20;;;32.10;27.40;;;;;;5086934;28;20048;-75
2021/05/10 11:16:01;;;;;;;4.05;1.27;;;32.40;27.80;;;;;;5081323;28;20483;-75
2021/05/10 11:18:53;;;;;;;4.53;1.00;;;32.40;27.30;;;;;;5086867;28;20442;-75
2021/05/10 11:21:22;;;;;;;8.82;1.25;;;32.20;26.80;;;;;;5080997;28;20021;-75
2021/05/10 11:23:56;;;;;;;7.65;1.20;;;32.10;26.90;;;;;;5077994;28;20017;-75
2021/05/10 11:26:51;;;;;;;5.18;1.17;;;32.10;26.50;;;;;;5059727;28;20093;-75
2021/05/10 11:29:26;;;;;;;2.40;1.15;;;32.10;26.40;;;;;;5076471;28;20487;-75
2021/05/10 11:32:09;;;;;;;7.40;1.48;;;32.30;27.20;;;;;;5072241;28;20062;-75
2021/05/10 11:34:40;;;;;;;3.72;1.35;;;32.30;27.00;;;;;;5087719;28;20115;-75
2021/05/10 11:37:07;;;;;;;5.80;1.48;;;31.60;26.50;;;;;;5078582;28;20039;-76
2021/05/10 11:39:37;;;;;;;6.05;1.63;;;31.80;27.70;;;;;;5090240;28;20434;-74
2021/05/10 11:42:05;;;;;;;5.90;1.77;;;32.00;26.60;;;;;;5076814;28;20028;-74
2021/05/10 11:44:39;;;;;;;7.13;1.50;;;32.10;26.60;;;;;;5078282;28;20159;-74
2021/05/10 11:47:09;;;;;;;5.93;1.10;;;32.10;26.60;;;;;;5088186;28;20380;-74
2021/05/10 11:49:39;;;;;;;8.07;1.33;;;32.20;26.10;;;;;;5072203;28;20017;-75
2021/05/10 11:52:17;;;;;;;4.43;1.20;;;32.30;25.60;;;;;;5076772;28;20552;-74
2021/05/10 11:54:54;;;;;;;6.75;1.50;;;31.80;26.40;;;;;;5072131;28;20028;-74
2021/05/10 11:57:21;;;;;;;8.05;1.17;;;31.70;26.10;;;;;;5061932;28;20421;-74
2021/05/10 12:02:32;;;;;;;4.32;1.27;;;31.20;27.70;;;;;;5088202;28;20077;-75
2021/05/10 12:05:00;;;;;;;3.35;1.45;;;31.30;27.00;;;;;;5072523;28;20479;-74
2021/05/10 12:07:30;;;;;;;4.85;1.15;;;31.10;27.10;;;;;;5092097;28;20028;-74
2021/05/10 12:10:01;;;;;;;11.57;1.55;;;31.10;27.70;;;;;;5092390;28;20051;-73
2021/05/10 12:12:41;;;;;;;5.82;1.08;;;30.80;27.40;;;;;;5092068;28;20031;-74
2021/05/10 12:15:25;;;;;;;5.38;1.15;;;30.60;27.20;;;;;;5072127;28;20028;-74
2021/05/10 12:17:55;;;;;;;4.53;1.30;;;30.50;27.30;;;;;;5072347;28;20074;-74
2021/05/10 12:20:29;;;;;;;5.32;0.70;;;30.20;26.60;;;;;;5071990;28;20099;-74
2021/05/10 12:23:00;;;;;;;10.13;2.00;;;30.20;27.30;;;;;;5071852;28;20437;-74
2021/05/10 12:25:33;;;;;;;20.95;3.47;;;30.40;26.90;;;;;;5072000;28;20409;-74
2021/05/10 12:28:10;;;;;;;9.90;1.90;;;30.40;27.60;;;;;;5072107;28;20449;-74
2021/05/10 12:30:46;;;;;;;4.95;1.15;;;30.60;27.70;;;;;;5071660;28;20017;-74
2021/05/10 12:33:27;;;;;;;8.52;1.77;;;30.70;26.90;;;;;;5071944;28;20531;-74
2021/05/10 12:36:04;;;;;;;8.43;1.63;;;30.70;26.50;;;;;;5053806;28;20025;-74
2021/05/10 12:38:40;;;;;;;4.80;1.58;;;30.70;26.60;;;;;;5070912;28;20021;-73
2021/05/10 12:41:08;;;;;;;11.43;1.73;;;30.70;27.30;;;;;;5071565;28;20035;-74
2021/05/10 12:43:45;;;;;;;7.20;1.50;;;30.50;27.20;;;;;;5071602;28;20442;-75
2021/05/10 12:46:11;;;;;;;11.30;1.45;;;30.20;27.50;;;;;;5071865;28;20017;-75
2021/05/10 12:48:40;;;;;;;8.32;1.20;;;30.40;27.90;;;;;;5071849;28;20047;-74
2021/05/10 12:51:08;;;;;;;4.18;1.15;;;30.30;27.40;;;;;;5071837;28;20024;-75
2021/05/10 12:53:55;;;;;;;6.75;1.30;;;30.30;28.00;;;;;;5077482;28;20028;-76
2021/05/10 12:56:23;;;;;;;9.23;1.58;;;30.30;27.90;;;;;;5079580;28;20031;-75
2021/05/10 12:58:51;;;;;;;6.82;1.38;;;30.00;27.80;;;;;;5076918;28;20537;-75